sensor_id;sensor_type;location;lat;lon;timestamp;pressure;altitude;pressure_sealevel;temperature
57468;BMP280;43311;51.196;7.518;2023-12-28T03:33:44;96522.44;;;6.80
57468;BMP280;43311;51.196;7.518;2023-12-28T03:36:18;96504.28;;;6.70
57468;BMP280;43311;51.196;7.518;2023-12-28T03:38:44;96508.31;;;6.81
57468;BMP280;43311;51.196;7.518;2023-12-28T03:41:17;96520.94;;;6.82
57468;BMP280;43311;51.196;7.518;2023-12-28T03:43:43;96532.78;;;6.94
57468;BMP280;43311;51.196;7.518;2023-12-28T03:46:09;96539.47;;;6.95
57468;BMP280;43311;51.196;7.518;2023-12-28T03:48:36;96522.78;;;6.89
57468;BMP280;43311;51.196;7.518;2023-12-28T03:51:01;96530.63;;;6.85
57468;BMP280;43311;51.196;7.518;2023-12-28T03:53:27;96509.00;;;6.88
57468;BMP280;43311;51.196;7.518;2023-12-28T03:55:52;96523.88;;;6.91
57468;BMP280;43311;51.196;7.518;2023-12-28T03:58:18;96527.59;;;6.90
57468;BMP280;43311;51.196;7.518;2023-12-28T04:00:44;96528.38;;;6.84
57468;BMP280;43311;51.196;7.518;2023-12-28T04:03:09;96546.22;;;6.89
57468;BMP280;43311;51.196;7.518;2023-12-28T04:05:35;96523.13;;;6.87
57468;BMP280;43311;51.196;7.518;2023-12-28T04:08:01;96507.91;;;6.86
57468;BMP280;43311;51.196;7.518;2023-12-28T04:10:30;96530.59;;;6.89
57468;BMP280;43311;51.196;7.518;2023-12-28T04:12:57;96545.09;;;6.90
57468;BMP280;43311;51.196;7.518;2023-12-28T04:15:25;96535.13;;;6.78
57468;BMP280;43311;51.196;7.518;2023-12-28T04:17:50;96546.97;;;6.86
57468;BMP280;43311;51.196;7.518;2023-12-28T04:20:16;96529.59;;;6.73
57468;BMP280;43311;51.196;7.518;2023-12-28T04:22:42;96521.38;;;6.74
57468;BMP280;43311;51.196;7.518;2023-12-28T04:25:11;96524.66;;;6.85
57468;BMP280;43311;51.196;7.518;2023-12-28T04:27:41;96537.28;;;6.90
57468;BMP280;43311;51.196;7.518;2023-12-28T04:30:07;96506.41;;;6.85
57468;BMP280;43311;51.196;7.518;2023-12-28T04:32:32;96523.56;;;6.82
57468;BMP280;43311;51.196;7.518;2023-12-28T04:35:01;96519.09;;;6.83
57468;BMP280;43311;51.196;7.518;2023-12-28T04:37:26;96521.75;;;6.73
57468;BMP280;43311;51.196;7.518;2023-12-28T04:39:52;96520.97;;;6.79
57468;BMP280;43311;51.196;7.518;2023-12-28T04:42:18;96524.34;;;6.76
57468;BMP280;43311;51.196;7.518;2023-12-28T04:44:44;96512.84;;;6.70
57468;BMP280;43311;51.196;7.518;2023-12-28T04:47:09;96525.47;;;6.75
57468;BMP280;43311;51.196;7.518;2023-12-28T04:49:35;96525.44;;;6.82
57468;BMP280;43311;51.196;7.518;2023-12-28T04:52:00;96509.53;;;6.66
57468;BMP280;43311;51.196;7.518;2023-12-28T04:54:27;96514.69;;;6.73
57468;BMP280;43311;51.196;7.518;2023-12-28T04:56:53;96500.22;;;6.65
57468;BMP280;43311;51.196;7.518;2023-12-28T04:59:19;96516.59;;;6.62
57468;BMP280;43311;51.196;7.518;2023-12-28T05:01:44;96515.78;;;6.72
57468;BMP280;43311;51.196;7.518;2023-12-28T05:04:10;96510.66;;;6.65
57468;BMP280;43311;51.196;7.518;2023-12-28T05:06:36;96517.38;;;6.59
57468;BMP280;43311;51.196;7.518;2023-12-28T05:09:02;96514.81;;;6.56
57468;BMP280;43311;51.196;7.518;2023-12-28T05:11:28;96524.47;;;6.55
57468;BMP280;43311;51.196;7.518;2023-12-28T05:13:53;96518.13;;;6.56
57468;BMP280;43311;51.196;7.518;2023-12-28T05:16:19;96532.28;;;6.55
57468;BMP280;43311;51.196;7.518;2023-12-28T05:18:46;96527.44;;;6.57
57468;BMP280;43311;51.196;7.518;2023-12-28T05:21:12;96532.66;;;6.57
57468;BMP280;43311;51.196;7.518;2023-12-28T05:23:37;96511.56;;;6.34
57468;BMP280;43311;51.196;7.518;2023-12-28T05:26:03;96533.06;;;6.45
57468;BMP280;43311;51.196;7.518;2023-12-28T05:28:28;96526.03;;;6.42
57468;BMP280;43311;51.196;7.518;2023-12-28T05:30:53;96539.03;;;6.46
57468;BMP280;43311;51.196;7.518;2023-12-28T05:33:19;96548.31;;;6.50
57468;BMP280;43311;51.196;7.518;2023-12-28T05:35:44;96549.81;;;6.44
57468;BMP280;43311;51.196;7.518;2023-12-28T05:38:09;96542.78;;;6.41
57468;BMP280;43311;51.196;7.518;2023-12-28T05:40:35;96548.34;;;6.43
57468;BMP280;43311;51.196;7.518;2023-12-28T05:43:00;96554.66;;;6.46
57468;BMP280;43311;51.196;7.518;2023-12-28T05:45:25;96551.72;;;6.40
57468;BMP280;43311;51.196;7.518;2023-12-28T05:47:51;96548.69;;;6.45
57468;BMP280;43311;51.196;7.518;2023-12-28T05:50:16;96553.19;;;6.41
57468;BMP280;43311;51.196;7.518;2023-12-28T05:52:41;96552.88;;;6.32
57468;BMP280;43311;51.196;7.518;2023-12-28T05:55:07;96549.50;;;6.32
57468;BMP280;43311;51.196;7.518;2023-12-28T05:57:33;96545.44;;;6.27
57468;BMP280;43311;51.196;7.518;2023-12-28T05:59:58;96547.66;;;6.32
57468;BMP280;43311;51.196;7.518;2023-12-28T06:02:23;96551.38;;;6.31
57468;BMP280;43311;51.196;7.518;2023-12-28T06:04:49;96520.59;;;6.12
57468;BMP280;43311;51.196;7.518;2023-12-28T06:07:14;96569.63;;;6.31
57468;BMP280;43311;51.196;7.518;2023-12-28T06:09:40;96562.16;;;6.30
57468;BMP280;43311;51.196;7.518;2023-12-28T06:12:05;96568.09;;;6.37
57468;BMP280;43311;51.196;7.518;2023-12-28T06:14:31;96585.19;;;6.38
57468;BMP280;43311;51.196;7.518;2023-12-28T06:16:56;96564.44;;;6.24
57468;BMP280;43311;51.196;7.518;2023-12-28T06:19:22;96579.66;;;6.29
57468;BMP280;43311;51.196;7.518;2023-12-28T06:21:48;96598.56;;;6.47
57468;BMP280;43311;51.196;7.518;2023-12-28T06:24:13;96593.34;;;6.44
57468;BMP280;43311;51.196;7.518;2023-12-28T06:26:42;96598.19;;;6.45
57468;BMP280;43311;51.196;7.518;2023-12-28T06:29:09;96594.47;;;6.43
57468;BMP280;43311;51.196;7.518;2023-12-28T06:31:35;96583.72;;;6.41
57468;BMP280;43311;51.196;7.518;2023-12-28T06:34:05;96600.81;;;6.38
57468;BMP280;43311;51.196;7.518;2023-12-28T06:36:32;96615.28;;;6.46
57468;BMP280;43311;51.196;7.518;2023-12-28T06:38:58;96606.03;;;6.38
57468;BMP280;43311;51.196;7.518;2023-12-28T06:41:24;96613.13;;;6.31
57468;BMP280;43311;51.196;7.518;2023-12-28T06:43:49;96603.09;;;6.22
57468;BMP280;43311;51.196;7.518;2023-12-28T06:46:15;96603.09;;;6.22
57468;BMP280;43311;51.196;7.518;2023-12-28T06:48:40;96609.81;;;6.23
57468;BMP280;43311;51.196;7.518;2023-12-28T06:51:06;96607.56;;;6.32
57468;BMP280;43311;51.196;7.518;2023-12-28T06:53:32;96602.34;;;6.32
57468;BMP280;43311;51.196;7.518;2023-12-28T06:55:57;96608.28;;;6.33
57468;BMP280;43311;51.196;7.518;2023-12-28T06:58:23;96609.03;;;6.30
57468;BMP280;43311;51.196;7.518;2023-12-28T07:00:48;96610.50;;;6.31
57468;BMP280;43311;51.196;7.518;2023-12-28T07:03:13;96599.78;;;6.18
57468;BMP280;43311;51.196;7.518;2023-12-28T07:05:39;96596.78;;;6.16
57468;BMP280;43311;51.196;7.518;2023-12-28T07:08:04;96602.78;;;6.13
57468;BMP280;43311;51.196;7.518;2023-12-28T07:10:30;96596.47;;;6.11
57468;BMP280;43311;51.196;7.518;2023-12-28T07:12:55;96611.28;;;6.24
57468;BMP280;43311;51.196;7.518;2023-12-28T07:15:20;96605.72;;;6.22
57468;BMP280;43311;51.196;7.518;2023-12-28T07:17:46;96589.00;;;6.16
57468;BMP280;43311;51.196;7.518;2023-12-28T07:20:11;96609.81;;;6.23
57468;BMP280;43311;51.196;7.518;2023-12-28T07:22:37;96614.28;;;6.19
57468;BMP280;43311;51.196;7.518;2023-12-28T07:25:07;96630.59;;;6.37
57468;BMP280;43311;51.196;7.518;2023-12-28T07:27:35;96617.91;;;6.39
57468;BMP280;43311;51.196;7.518;2023-12-28T07:30:02;96629.81;;;6.40
57468;BMP280;43311;51.196;7.518;2023-12-28T07:32:28;96623.53;;;6.34
57468;BMP280;43311;51.196;7.518;2023-12-28T07:34:54;96618.69;;;6.29
57468;BMP280;43311;51.196;7.518;2023-12-28T07:37:20;96600.88;;;6.24
57468;BMP280;43311;51.196;7.518;2023-12-28T07:39:46;96616.47;;;6.31
57468;BMP280;43311;51.196;7.518;2023-12-28T07:42:12;96626.84;;;6.38
57468;BMP280;43311;51.196;7.518;2023-12-28T07:44:37;96626.09;;;6.41
57468;BMP280;43311;51.196;7.518;2023-12-28T07:47:03;96632.09;;;6.31
57468;BMP280;43311;51.196;7.518;2023-12-28T07:49:30;96638.41;;;6.34
57468;BMP280;43311;51.196;7.518;2023-12-28T07:51:56;96607.97;;;6.17
57468;BMP280;43311;51.196;7.518;2023-12-28T07:54:21;96622.44;;;6.28
57468;BMP280;43311;51.196;7.518;2023-12-28T07:56:46;96617.19;;;6.39
57468;BMP280;43311;51.196;7.518;2023-12-28T07:59:12;96624.59;;;6.47
57468;BMP280;43311;51.196;7.518;2023-12-28T08:01:37;96626.09;;;6.45
57468;BMP280;43311;51.196;7.518;2023-12-28T08:04:02;96627.59;;;6.42
57468;BMP280;43311;51.196;7.518;2023-12-28T08:06:28;96634.28;;;6.43
57468;BMP280;43311;51.196;7.518;2023-12-28T08:08:56;96640.22;;;6.47
57468;BMP280;43311;51.196;7.518;2023-12-28T08:11:21;96628.31;;;6.50
57468;BMP280;43311;51.196;7.518;2023-12-28T08:13:47;96640.22;;;6.51
57468;BMP280;43311;51.196;7.518;2023-12-28T08:16:12;96614.19;;;6.44
57468;BMP280;43311;51.196;7.518;2023-12-28T08:18:37;96642.41;;;6.59
57468;BMP280;43311;51.196;7.518;2023-12-28T08:21:03;96629.00;;;6.57
57468;BMP280;43311;51.196;7.518;2023-12-28T08:23:28;96632.34;;;6.65
57468;BMP280;43311;51.196;7.518;2023-12-28T08:25:53;96648.66;;;6.79
57468;BMP280;43311;51.196;7.518;2023-12-28T08:28:19;96648.31;;;6.77
57468;BMP280;43311;51.196;7.518;2023-12-28T08:30:44;96643.09;;;6.77
57468;BMP280;43311;51.196;7.518;2023-12-28T08:33:09;96649.38;;;6.83
57468;BMP280;43311;51.196;7.518;2023-12-28T08:35:35;96650.09;;;6.87
57468;BMP280;43311;51.196;7.518;2023-12-28T08:38:01;96645.22;;;6.92
57468;BMP280;43311;51.196;7.518;2023-12-28T08:40:26;96639.66;;;6.94
57468;BMP280;43311;51.196;7.518;2023-12-28T08:42:52;96643.72;;;6.95
57468;BMP280;43311;51.196;7.518;2023-12-28T08:45:17;96644.13;;;6.86
57468;BMP280;43311;51.196;7.518;2023-12-28T08:47:42;96658.91;;;7.10
57468;BMP280;43311;51.196;7.518;2023-12-28T08:50:08;96655.97;;;7.05
57468;BMP280;43311;51.196;7.518;2023-12-28T08:52:34;96655.53;;;7.17
57468;BMP280;43311;51.196;7.518;2023-12-28T08:54:59;96662.56;;;7.23
57468;BMP280;43311;51.196;7.518;2023-12-28T08:57:26;96653.28;;;7.15
57468;BMP280;43311;51.196;7.518;2023-12-28T08:59:51;96665.19;;;7.20
57468;BMP280;43311;51.196;7.518;2023-12-28T09:02:17;96676.66;;;7.33
57468;BMP280;43311;51.196;7.518;2023-12-28T09:04:42;96672.56;;;7.35
57468;BMP280;43311;51.196;7.518;2023-12-28T09:07:07;96676.25;;;7.41
57468;BMP280;43311;51.196;7.518;2023-12-28T09:09:33;96681.38;;;7.51
57468;BMP280;43311;51.196;7.518;2023-12-28T09:11:58;96660.59;;;7.38
57468;BMP280;43311;51.196;7.518;2023-12-28T09:14:23;96696.22;;;7.65
57468;BMP280;43311;51.196;7.518;2023-12-28T09:16:49;96679.84;;;7.54
57468;BMP280;43311;51.196;7.518;2023-12-28T09:19:14;96696.63;;;7.56
57468;BMP280;43311;51.196;7.518;2023-12-28T09:21:39;96691.00;;;7.61
57468;BMP280;43311;51.196;7.518;2023-12-28T09:24:06;96690.25;;;7.61
57468;BMP280;43311;51.196;7.518;2023-12-28T09:26:31;96693.63;;;7.61
57468;BMP280;43311;51.196;7.518;2023-12-28T09:28:58;96697.31;;;7.67
